Time;durP1;ratioP1;P1;durP2;ratioP2;P2;SDS_P1;SDS_P2;PMS_P1;PMS_P2;Temp;Humidity;BMP_temperature;BMP_pressure;BME280_temperature;BME280_humidity;BME280_pressure;Samples;Min_cycle;Max_cycle;Signal;HPM_P1;HPM_P2
2024/01/22 00:01:38;;;;;;;5.30;3.10;;;7.80;99.90;;;;;;5041574;28;20044;-83
2024/01/22 00:04:04;;;;;;;7.25;3.25;;;7.80;99.90;;;;;;5039582;28;20040;-83
2024/01/22 00:06:33;;;;;;;5.03;3.25;;;7.90;99.90;;;;;;5056295;28;20063;-83
2024/01/22 00:08:59;;;;;;;6.07;3.35;;;7.90;99.90;;;;;;5023984;28;20021;-83
2024/01/22 00:11:24;;;;;;;5.43;3.20;;;8.00;99.90;;;;;;5056497;28;20078;-83
2024/01/22 00:13:50;;;;;;;6.30;3.20;;;8.00;99.90;;;;;;5053561;28;20024;-83
2024/01/22 00:16:15;;;;;;;6.75;3.42;;;8.00;99.90;;;;;;5084223;28;20012;-82
2024/01/22 00:18:41;;;;;;;5.53;3.58;;;8.00;99.90;;;;;;5072495;28;20008;-81
2024/01/22 00:21:07;;;;;;;4.75;3.65;;;8.00;99.90;;;;;;5098427;28;20031;-80
2024/01/22 00:23:32;;;;;;;5.32;3.53;;;8.10;99.90;;;;;;5116807;28;20013;-83
2024/01/22 00:25:58;;;;;;;5.28;3.63;;;8.10;99.90;;;;;;5102228;28;20031;-81
2024/01/22 00:28:24;;;;;;;5.95;3.13;;;8.10;99.90;;;;;;5063106;28;20468;-82
2024/01/22 00:30:49;;;;;;;6.28;2.97;;;8.10;99.90;;;;;;5055762;28;20081;-83
2024/01/22 00:33:15;;;;;;;5.47;3.13;;;8.20;99.90;;;;;;5058220;28;20085;-82
2024/01/22 00:35:40;;;;;;;4.40;3.10;;;8.20;99.90;;;;;;5073055;28;20036;-82
2024/01/22 00:38:06;;;;;;;8.90;3.95;;;8.20;99.90;;;;;;5030545;28;20025;-82
2024/01/22 00:40:32;;;;;;;5.93;3.25;;;8.30;99.90;;;;;;5041675;28;20036;-82
2024/01/22 00:42:57;;;;;;;4.28;2.92;;;8.30;99.90;;;;;;5075985;28;20032;-83
2024/01/22 00:45:23;;;;;;;6.97;3.55;;;8.30;99.90;;;;;;5074612;28;20028;-82
2024/01/22 00:47:48;;;;;;;6.53;3.15;;;8.30;99.90;;;;;;5058839;28;20024;-83
2024/01/22 00:50:14;;;;;;;7.00;3.38;;;8.40;99.90;;;;;;5056419;28;20409;-81
2024/01/22 00:52:40;;;;;;;4.97;3.03;;;8.40;99.90;;;;;;5084971;28;20028;-82
2024/01/22 00:55:06;;;;;;;4.95;3.30;;;8.40;99.90;;;;;;5055495;28;20494;-83
2024/01/22 00:57:31;;;;;;;5.85;3.00;;;8.40;99.90;;;;;;5055592;28;20529;-82
2024/01/22 00:59:57;;;;;;;5.47;2.95;;;8.40;99.90;;;;;;5054857;28;20039;-82
2024/01/22 01:02:22;;;;;;;5.32;2.97;;;8.40;99.90;;;;;;5048991;28;20116;-82
2024/01/22 01:04:48;;;;;;;4.28;2.88;;;8.50;99.90;;;;;;5029217;28;20143;-83
2024/01/22 01:07:14;;;;;;;4.30;3.00;;;8.50;99.90;;;;;;5056245;28;20028;-82
2024/01/22 01:09:40;;;;;;;4.35;2.67;;;8.50;99.90;;;;;;5059158;28;20075;-83
2024/01/22 01:12:05;;;;;;;4.35;2.78;;;8.50;99.90;;;;;;5059346;28;20399;-82
2024/01/22 01:14:32;;;;;;;5.65;2.47;;;8.60;99.90;;;;;;5027183;28;20029;-83
2024/01/22 01:16:58;;;;;;;5.68;3.00;;;8.60;99.90;;;;;;5066190;28;20035;-83
2024/01/22 01:19:24;;;;;;;5.57;2.75;;;8.60;99.90;;;;;;5042470;28;20044;-83
2024/01/22 01:21:50;;;;;;;6.93;3.20;;;8.60;99.90;;;;;;5058628;28;20115;-83
2024/01/22 01:24:16;;;;;;;3.97;2.88;;;8.70;99.90;;;;;;5026149;28;20021;-83
2024/01/22 01:26:45;;;;;;;7.07;2.55;;;8.70;99.90;;;;;;5055355;28;20085;-83
2024/01/22 01:29:13;;;;;;;5.13;2.85;;;8.80;99.90;;;;;;5062318;28;20380;-82
2024/01/22 01:31:38;;;;;;;4.35;2.63;;;8.80;99.90;;;;;;5096382;28;20476;-83
2024/01/22 01:34:04;;;;;;;3.08;2.40;;;8.80;99.90;;;;;;5063122;28;20053;-83
2024/01/22 01:36:32;;;;;;;4.03;2.67;;;8.80;99.90;;;;;;5046865;28;20032;-83
2024/01/22 01:38:57;;;;;;;4.32;2.50;;;8.90;99.90;;;;;;5065855;28;20032;-82
2024/01/22 01:41:23;;;;;;;3.53;2.42;;;8.90;99.90;;;;;;5081194;28;20035;-82
2024/01/22 01:43:49;;;;;;;4.88;2.10;;;8.90;99.90;;;;;;5067556;28;20036;-82
2024/01/22 01:46:14;;;;;;;3.25;2.08;;;8.90;99.90;;;;;;5087152;28;20032;-82
2024/01/22 01:48:41;;;;;;;3.83;2.33;;;8.90;99.90;;;;;;5053567;28;20379;-83
2024/01/22 01:51:08;;;;;;;3.38;2.08;;;8.90;99.90;;;;;;5060005;28;20025;-82
2024/01/22 01:53:34;;;;;;;2.75;2.30;;;9.00;99.90;;;;;;5044573;28;20020;-83
2024/01/22 01:56:01;;;;;;;3.70;2.40;;;9.00;99.90;;;;;;5048874;28;20024;-83
2024/01/22 01:58:26;;;;;;;5.00;2.08;;;9.00;99.90;;;;;;5065964;28;20028;-83
2024/01/22 02:00:56;;;;;;;4.10;2.15;;;9.10;99.90;;;;;;5065226;28;20427;-83
2024/01/22 02:03:22;;;;;;;5.32;2.20;;;9.10;99.90;;;;;;5066103;28;20060;-84
2024/01/22 02:05:47;;;;;;;5.50;2.25;;;9.10;99.90;;;;;;5064446;28;20036;-83
2024/01/22 02:08:13;;;;;;;5.35;2.22;;;9.10;99.90;;;;;;5041825;28;20020;-82
2024/01/22 02:10:39;;;;;;;6.55;2.72;;;9.10;99.90;;;;;;5058404;28;20032;-83
2024/01/22 02:13:08;;;;;;;3.42;2.20;;;9.10;99.90;;;;;;5041710;28;20036;-84
2024/01/22 02:15:34;;;;;;;4.40;2.75;;;9.10;99.90;;;;;;5051616;28;20025;-84
2024/01/22 02:18:00;;;;;;;4.60;2.22;;;9.10;99.90;;;;;;5058002;28;20566;-85
2024/01/22 02:20:27;;;;;;;4.18;1.90;;;9.20;99.90;;;;;;5065032;28;20059;-83
2024/01/22 02:22:53;;;;;;;4.25;2.05;;;9.10;99.90;;;;;;5058074;28;20107;-84
2024/01/22 02:25:18;;;;;;;5.10;2.05;;;9.20;99.90;;;;;;5057334;28;20481;-84
2024/01/22 02:27:44;;;;;;;3.83;2.30;;;9.20;99.90;;;;;;5059313;28;20035;-84
2024/01/22 02:30:11;;;;;;;3.40;1.90;;;9.20;99.90;;;;;;5027169;28;20044;-84
2024/01/22 02:32:36;;;;;;;3.85;1.88;;;9.30;99.90;;;;;;5075610;28;20475;-84
2024/01/22 02:35:02;;;;;;;4.15;2.15;;;9.30;99.90;;;;;;5040944;28;20040;-84
2024/01/22 02:37:31;;;;;;;4.43;2.30;;;9.30;99.90;;;;;;5060278;28;20126;-84
2024/01/22 02:39:56;;;;;;;5.32;2.08;;;9.30;99.90;;;;;;5060977;28;20032;-84
2024/01/22 02:42:22;;;;;;;2.22;1.90;;;9.40;99.90;;;;;;5043541;28;20476;-83
2024/01/22 02:44:48;;;;;;;2.78;1.98;;;9.40;99.90;;;;;;5060724;28;20036;-84
2024/01/22 02:47:13;;;;;;;2.65;1.88;;;9.40;99.90;;;;;;5040718;28;20020;-85
2024/01/22 02:49:39;;;;;;;2.88;1.90;;;9.40;99.90;;;;;;5030685;28;20033;-84
2024/01/22 02:52:05;;;;;;;3.42;1.70;;;9.40;99.90;;;;;;5057836;28;20057;-84
2024/01/22 02:54:30;;;;;;;5.55;1.85;;;9.50;99.90;;;;;;5040623;28;20373;-85
2024/01/22 02:56:56;;;;;;;3.97;2.00;;;9.50;99.90;;;;;;5042959;28;20111;-84
2024/01/22 02:59:21;;;;;;;2.38;1.50;;;9.50;99.90;;;;;;5057181;28;20044;-85
2024/01/22 03:01:47;;;;;;;4.40;2.00;;;9.50;99.90;;;;;;5048723;28;20031;-85
2024/01/22 03:04:13;;;;;;;3.72;2.00;;;9.40;99.90;;;;;;5043074;28;20056;-85
2024/01/22 03:06:38;;;;;;;3.00;2.00;;;9.40;99.90;;;;;;5059399;28;20028;-85
2024/01/22 03:09:05;;;;;;;4.00;2.00;;;9.40;99.90;;;;;;5063092;28;20088;-83
2024/01/22 03:11:31;;;;;;;3.60;1.65;;;9.40;99.90;;;;;;5100911;28;20028;-82
2024/01/22 03:13:56;;;;;;;3.40;1.60;;;9.40;99.90;;;;;;5078411;28;20004;-84
2024/01/22 03:16:24;;;;;;;3.03;1.90;;;9.40;99.90;;;;;;5078065;28;20115;-85
2024/01/22 03:18:50;;;;;;;3.97;1.95;;;9.40;99.90;;;;;;5078319;28;20028;-85
2024/01/22 03:21:18;;;;;;;4.10;2.20;;;9.40;99.90;;;;;;5054797;28;20097;-85
2024/01/22 03:23:44;;;;;;;2.97;2.00;;;9.40;99.90;;;;;;5066356;28;20024;-85
2024/01/22 03:26:21;;;;;;;3.47;1.88;;;9.40;99.90;;;;;;5056926;28;20105;-83
2024/01/22 03:28:51;;;;;;;2.20;1.38;;;9.40;99.90;;;;;;5077250;28;20046;-84
2024/01/22 03:31:27;;;;;;;3.00;2.03;;;9.40;99.90;;;;;;5059655;28;20024;-85
2024/01/22 03:33:54;;;;;;;2.60;1.80;;;9.50;99.90;;;;;;5044154;28;20017;-84
2024/01/22 03:36:20;;;;;;;3.28;2.20;;;9.50;99.90;;;;;;5077180;28;20467;-84
2024/01/22 03:38:46;;;;;;;3.13;1.85;;;9.50;99.90;;;;;;5076295;28;20028;-84
2024/01/22 03:41:12;;;;;;;2.45;1.58;;;9.50;99.90;;;;;;5077105;28;20039;-84
2024/01/22 03:43:38;;;;;;;3.40;2.00;;;9.50;99.90;;;;;;5076958;28;20028;-84
2024/01/22 03:46:04;;;;;;;2.28;1.70;;;9.60;99.90;;;;;;5094973;28;20031;-84
2024/01/22 03:48:29;;;;;;;1.80;1.45;;;9.60;99.90;;;;;;5095268;28;20376;-84
2024/01/22 03:50:55;;;;;;;2.63;1.98;;;9.60;99.90;;;;;;5043653;28;20169;-84
2024/01/22 03:53:21;;;;;;;2.53;1.70;;;9.60;99.90;;;;;;5077004;28;20028;-84
2024/01/22 03:55:46;;;;;;;2.80;1.80;;;9.60;99.90;;;;;;5076825;28;20028;-84
2024/01/22 03:58:12;;;;;;;3.65;1.80;;;9.60;99.90;;;;;;5094803;28;20032;-84
2024/01/22 04:00:38;;;;;;;1.98;1.48;;;9.60;99.90;;;;;;5094896;28;20129;-84
2024/01/22 04:03:04;;;;;;;2.22;1.63;;;9.60;99.90;;;;;;5060404;28;20485;-84
2024/01/22 04:05:31;;;;;;;1.83;1.50;;;9.60;99.90;;;;;;5095225;28;20052;-84
2024/01/22 04:07:57;;;;;;;2.38;1.73;;;9.60;99.90;;;;;;5060292;28;20042;-84
2024/01/22 04:10:23;;;;;;;2.88;1.63;;;9.50;99.90;;;;;;5060603;28;20031;-84
2024/01/22 04:12:49;;;;;;;3.13;1.80;;;9.50;99.90;;;;;;5076488;28;20032;-83
2024/01/22 04:15:15;;;;;;;3.72;1.50;;;9.60;99.90;;;;;;5060047;28;20397;-83
2024/01/22 04:17:41;;;;;;;3.10;1.20;;;9.60;99.90;;;;;;5059801;28;20432;-83
2024/01/22 04:20:07;;;;;;;2.10;1.50;;;9.60;99.90;;;;;;5076612;28;20035;-83
2024/01/22 04:22:33;;;;;;;1.77;1.20;;;9.60;99.90;;;;;;5043388;28;20035;-84
2024/01/22 04:24:59;;;;;;;2.20;1.55;;;9.60;99.90;;;;;;5076628;28;20028;-83
2024/01/22 04:27:24;;;;;;;2.22;1.17;;;9.60;99.90;;;;;;5059854;28;20028;-83
2024/01/22 04:29:50;;;;;;;1.88;1.35;;;9.60;99.90;;;;;;5076407;28;20032;-83
2024/01/22 04:32:16;;;;;;;3.85;1.60;;;9.60;99.90;;;;;;5076777;28;20028;-84
2024/01/22 04:34:42;;;;;;;2.45;1.40;;;9.70;99.90;;;;;;5079405;28;20375;-83
2024/01/22 04:37:08;;;;;;;3.13;1.60;;;9.70;99.90;;;;;;5096027;28;20115;-83
2024/01/22 04:39:34;;;;;;;3.25;1.48;;;9.70;99.90;;;;;;5118056;28;20020;-84
2024/01/22 04:42:00;;;;;;;2.30;1.42;;;9.70;99.90;;;;;;5100344;28;20009;-83
2024/01/22 04:44:28;;;;;;;1.42;1.20;;;9.70;99.90;;;;;;5083446;28;20046;-84
2024/01/22 04:46:55;;;;;;;2.25;1.38;;;9.70;99.90;;;;;;5083009;28;20126;-83
2024/01/22 04:49:21;;;;;;;3.00;1.40;;;9.80;99.90;;;;;;5054040;28;20482;-84
2024/01/22 04:51:47;;;;;;;1.55;1.15;;;9.80;99.90;;;;;;5076183;28;20032;-83
2024/01/22 04:54:12;;;;;;;2.20;1.38;;;9.80;99.90;;;;;;5076510;28;20039;-83
2024/01/22 04:56:44;;;;;;;2.00;1.30;;;9.80;99.90;;;;;;5059428;28;20032;-83
2024/01/22 04:59:10;;;;;;;3.15;1.60;;;9.80;99.90;;;;;;5076576;28;20020;-83
2024/01/22 05:01:36;;;;;;;3.03;1.40;;;9.90;99.90;;;;;;5059923;28;20482;-83
2024/01/22 05:04:03;;;;;;;2.45;1.20;;;9.90;99.90;;;;;;5059251;28;20048;-84
2024/01/22 05:06:29;;;;;;;2.45;1.23;;;9.90;99.90;;;;;;5059440;28;20468;-84
2024/01/22 05:08:54;;;;;;;2.35;1.40;;;9.90;99.90;;;;;;5093644;28;20024;-82
2024/01/22 05:11:20;;;;;;;2.45;1.30;;;9.90;99.90;;;;;;5075573;28;20130;-82
2024/01/22 05:13:53;;;;;;;2.15;1.20;;;9.90;99.90;;;;;;5059179;28;20025;-82
2024/01/22 05:16:20;;;;;;;3.03;1.45;;;9.90;99.90;;;;;;5076275;28;20093;-83
2024/01/22 05:18:47;;;;;;;2.45;0.98;;;9.90;99.90;;;;;;5075796;28;20456;-83
2024/01/22 05:21:13;;;;;;;2.15;1.30;;;10.00;99.90;;;;;;5093876;28;20028;-83
2024/01/22 05:23:40;;;;;;;2.97;1.20;;;10.00;99.90;;;;;;5059172;28;20027;-83
2024/01/22 05:26:06;;;;;;;2.80;1.10;;;10.00;99.90;;;;;;5093944;28;20035;-83
2024/01/22 05:28:32;;;;;;;2.95;1.13;;;10.10;99.90;;;;;;5059271;28;20024;-83
2024/01/22 05:30:59;;;;;;;2.70;1.20;;;10.10;99.90;;;;;;5059501;28;20155;-83
2024/01/22 05:33:25;;;;;;;2.28;1.05;;;10.10;99.90;;;;;;5093690;28;20024;-83
2024/01/22 05:35:51;;;;;;;2.30;1.00;;;10.10;99.90;;;;;;5057697;28;20043;-84
2024/01/22 05:38:16;;;;;;;2.38;1.20;;;10.20;99.90;;;;;;5042014;28;20035;-84
2024/01/22 05:40:42;;;;;;;1.92;1.08;;;10.20;99.90;;;;;;5075012;28;20036;-83
2024/01/22 05:43:08;;;;;;;2.67;1.17;;;10.20;99.90;;;;;;5075205;28;20475;-85
2024/01/22 05:45:34;;;;;;;1.60;1.25;;;10.20;99.90;;;;;;5075877;28;20047;-84
2024/01/22 05:47:59;;;;;;;2.97;1.13;;;10.20;99.90;;;;;;5075412;28;20028;-85
2024/01/22 05:50:25;;;;;;;1.58;0.80;;;10.30;99.90;;;;;;5075503;28;20028;-85
2024/01/22 05:52:51;;;;;;;2.65;1.08;;;10.30;99.90;;;;;;5042848;28;20020;-86
2024/01/22 05:55:16;;;;;;;1.80;1.00;;;10.30;99.90;;;;;;5062854;28;20055;-87
2024/01/22 05:57:42;;;;;;;1.55;0.90;;;10.40;99.90;;;;;;5046627;28;20024;-84
2024/01/22 06:00:13;;;;;;;1.08;0.93;;;10.40;99.90;;;;;;5080122;28;20040;-84
2024/01/22 06:02:39;;;;;;;;;;;10.40;99.90;;;;;;5066164;28;20028;-85
2024/01/22 06:05:05;;;;;;;1.42;0.70;;;10.40;99.90;;;;;;5074901;28;19988;-84
2024/01/22 06:07:30;;;;;;;1.92;0.90;;;10.50;99.90;;;;;;5068263;28;20032;-86
2024/01/22 06:09:56;;;;;;;4.53;1.35;;;10.50;99.90;;;;;;5068886;28;20047;-85
2024/01/22 06:12:22;;;;;;;1.63;0.77;;;10.50;99.90;;;;;;5085651;28;20012;-85
2024/01/22 06:14:47;;;;;;;3.03;0.95;;;10.60;99.90;;;;;;5095791;28;20039;-86
2024/01/22 06:17:13;;;;;;;2.97;0.98;;;10.60;99.90;;;;;;5097954;28;20028;-87
2024/01/22 06:19:38;;;;;;;2.28;0.80;;;10.60;99.90;;;;;;5062651;28;20032;-85
2024/01/22 06:22:04;;;;;;;3.58;0.93;;;10.70;99.90;;;;;;5062377;28;20028;-86
2024/01/22 06:24:30;;;;;;;1.88;0.90;;;10.70;99.90;;;;;;5045366;28;20456;-86
2024/01/22 06:26:55;;;;;;;0.80;0.57;;;10.70;99.90;;;;;;5045127;28;20460;-85
2024/01/22 06:29:21;;;;;;;0.80;0.50;;;10.80;99.90;;;;;;5061489;28;20456;-85
2024/01/22 06:31:46;;;;;;;3.20;1.00;;;10.80;99.90;;;;;;5061717;28;20539;-84
2024/01/22 06:34:12;;;;;;;2.88;0.82;;;10.80;99.90;;;;;;5044600;28;20035;-85
2024/01/22 06:36:38;;;;;;;1.85;0.98;;;10.90;99.90;;;;;;5078056;28;20036;-85
2024/01/22 06:39:04;;;;;;;7.13;1.10;;;10.90;99.90;;;;;;5044626;28;20125;-85
2024/01/22 06:41:31;;;;;;;2.08;0.73;;;10.90;99.90;;;;;;5078170;28;20424;-85
2024/01/22 06:43:57;;;;;;;3.92;0.90;;;10.90;99.90;;;;;;5061824;28;20024;-86
2024/01/22 06:46:22;;;;;;;1.60;0.88;;;11.00;99.90;;;;;;5078338;28;20455;-86
2024/01/22 06:48:48;;;;;;;2.10;0.77;;;11.00;99.90;;;;;;5077760;28;20464;-84
2024/01/22 06:51:14;;;;;;;1.70;0.90;;;11.00;99.90;;;;;;5061420;28;20044;-83
2024/01/22 06:53:39;;;;;;;2.83;0.80;;;11.00;99.90;;;;;;5044870;28;20031;-83
2024/01/22 06:56:06;;;;;;;2.00;0.88;;;11.00;99.90;;;;;;5044640;28;20483;-84
2024/01/22 06:58:32;;;;;;;2.55;1.00;;;11.00;99.90;;;;;;5077918;28;20028;-83
2024/01/22 07:00:58;;;;;;;2.78;0.90;;;11.00;99.90;;;;;;5044510;28;20032;-84
2024/01/22 07:03:24;;;;;;;1.15;0.70;;;11.10;99.90;;;;;;5061301;28;20410;-85
2024/01/22 07:05:50;;;;;;;1.85;0.88;;;11.10;99.90;;;;;;5057152;28;20048;-84
2024/01/22 07:08:16;;;;;;;1.77;0.70;;;11.10;99.90;;;;;;5057530;28;20535;-87
2024/01/22 07:10:41;;;;;;;1.50;0.80;;;11.10;99.90;;;;;;5057788;28;20044;-83
2024/01/22 07:13:07;;;;;;;3.85;0.77;;;11.10;99.90;;;;;;5057652;28;20116;-84
2024/01/22 07:15:36;;;;;;;2.78;1.00;;;11.10;99.90;;;;;;5074430;28;20361;-84
2024/01/22 07:18:02;;;;;;;1.92;0.88;;;11.10;99.90;;;;;;5074065;28;20025;-84
2024/01/22 07:20:28;;;;;;;3.20;1.10;;;11.10;99.90;;;;;;5057580;28;20032;-84
2024/01/22 07:22:54;;;;;;;4.32;1.00;;;11.10;99.90;;;;;;5057617;28;20031;-84
2024/01/22 07:25:20;;;;;;;2.97;0.95;;;11.10;99.90;;;;;;5074492;28;20037;-84
2024/01/22 07:27:45;;;;;;;2.55;1.10;;;11.10;99.90;;;;;;5075686;28;20024;-84
2024/01/22 07:30:12;;;;;;;4.00;1.08;;;11.10;99.90;;;;;;5057790;28;20039;-84
2024/01/22 07:32:40;;;;;;;6.57;1.20;;;11.10;99.90;;;;;;5075789;28;20028;-85
2024/01/22 07:35:10;;;;;;;3.17;1.13;;;11.20;99.90;;;;;;5075022;28;20029;-84
2024/01/22 07:37:37;;;;;;;6.15;1.45;;;11.20;99.90;;;;;;5057542;28;20013;-83
2024/01/22 07:40:04;;;;;;;3.45;1.30;;;11.20;99.90;;;;;;5099417;28;20084;-84
2024/01/22 07:42:34;;;;;;;3.75;1.17;;;11.20;99.90;;;;;;5082314;28;20025;-84
2024/01/22 07:45:01;;;;;;;5.88;1.60;;;11.20;99.90;;;;;;5099156;28;20033;-84
2024/01/22 07:47:27;;;;;;;4.10;1.38;;;11.20;99.90;;;;;;5081057;28;20103;-84
2024/01/22 07:49:54;;;;;;;6.97;1.35;;;11.20;99.90;;;;;;5057487;28;20043;-85
2024/01/22 07:52:20;;;;;;;3.67;1.17;;;11.30;99.90;;;;;;5073823;28;20024;-84
2024/01/22 07:54:46;;;;;;;5.30;1.45;;;11.30;99.90;;;;;;5074479;28;20020;-84
2024/01/22 07:57:12;;;;;;;3.95;1.10;;;11.30;99.90;;;;;;5057007;28;20461;-84
2024/01/22 07:59:38;;;;;;;4.60;1.10;;;11.30;99.90;;;;;;5040395;28;20552;-84
2024/01/22 08:02:04;;;;;;;5.82;1.30;;;11.30;99.90;;;;;;5073204;28;20116;-84
2024/01/22 08:04:34;;;;;;;6.07;1.40;;;11.30;99.90;;;;;;5081266;28;20074;-83
2024/01/22 08:07:03;;;;;;;7.63;2.00;;;11.30;99.90;;;;;;5060433;28;20052;-85
2024/01/22 08:09:30;;;;;;;7.82;1.77;;;11.30;99.90;;;;;;5043957;28;20024;-84
2024/01/22 08:11:58;;;;;;;7.40;1.85;;;11.30;99.90;;;;;;5059370;28;20035;-85
2024/01/22 08:14:25;;;;;;;5.20;1.20;;;11.40;99.90;;;;;;5060749;28;20024;-83
2024/01/22 08:16:51;;;;;;;9.55;2.10;;;11.40;99.90;;;;;;5075961;28;20028;-84
2024/01/22 08:19:20;;;;;;;7.90;1.98;;;11.30;99.90;;;;;;5060652;28;20032;-84
2024/01/22 08:21:45;;;;;;;9.75;2.10;;;11.30;99.90;;;;;;5098317;28;20399;-84
2024/01/22 08:24:11;;;;;;;10.77;2.05;;;11.30;99.90;;;;;;5062139;28;20024;-84
2024/01/22 08:26:36;;;;;;;7.00;1.60;;;11.30;99.90;;;;;;5094838;28;20024;-84
2024/01/22 08:29:05;;;;;;;8.30;1.67;;;11.30;99.90;;;;;;5076950;28;20032;-83
2024/01/22 08:31:30;;;;;;;5.13;1.52;;;11.30;99.90;;;;;;5059700;28;20460;-84
2024/01/22 08:33:56;;;;;;;9.55;1.90;;;11.30;99.90;;;;;;5059529;28;20138;-84
2024/01/22 08:36:22;;;;;;;5.32;1.58;;;11.30;99.90;;;;;;5043230;28;20423;-83
2024/01/22 08:38:48;;;;;;;8.90;2.30;;;11.30;99.90;;;;;;5076050;28;20036;-84
2024/01/22 08:41:13;;;;;;;8.50;2.03;;;11.30;99.90;;;;;;5042815;28;20032;-84
2024/01/22 08:43:40;;;;;;;6.90;1.67;;;11.30;99.90;;;;;;5059474;28;20028;-84
2024/01/22 08:46:05;;;;;;;7.68;2.30;;;11.30;99.90;;;;;;5042940;28;20024;-84
2024/01/22 08:48:31;;;;;;;3.13;1.60;;;11.30;99.90;;;;;;5043045;28;20024;-84
2024/01/22 08:50:57;;;;;;;9.82;2.20;;;11.30;99.90;;;;;;5076427;28;20032;-84
2024/01/22 08:53:23;;;;;;;5.22;1.50;;;11.30;99.90;;;;;;5059391;28;20035;-84
2024/01/22 08:55:49;;;;;;;6.88;2.00;;;11.30;99.90;;;;;;5043288;28;20028;-83
2024/01/22 08:58:18;;;;;;;8.20;2.05;;;11.30;99.90;;;;;;5076267;28;20119;-84
2024/01/22 09:00:43;;;;;;;7.60;1.98;;;11.30;99.90;;;;;;5076867;28;20062;-84
2024/01/22 09:03:09;;;;;;;4.75;1.58;;;11.30;99.90;;;;;;5060573;28;20032;-84
2024/01/22 09:05:35;;;;;;;9.85;2.45;;;11.30;99.90;;;;;;5077324;28;20465;-84
2024/01/22 09:08:00;;;;;;;6.80;2.28;;;11.30;99.90;;;;;;5070977;28;20088;-84
2024/01/22 09:10:26;;;;;;;8.13;2.17;;;11.30;99.90;;;;;;5084185;28;20020;-83
2024/01/22 09:12:53;;;;;;;8.77;2.22;;;11.30;99.90;;;;;;5100751;28;20052;-84
2024/01/22 09:15:19;;;;;;;7.57;2.42;;;11.30;99.90;;;;;;5100997;28;20016;-83
2024/01/22 09:17:45;;;;;;;7.43;2.50;;;11.30;99.90;;;;;;5100463;28;20031;-84
2024/01/22 09:20:11;;;;;;;8.23;2.35;;;11.30;99.90;;;;;;5083029;28;20012;-84
2024/01/22 09:22:38;;;;;;;8.98;2.50;;;11.30;99.90;;;;;;5084540;28;20103;-85
2024/01/22 09:25:05;;;;;;;8.38;2.42;;;11.30;99.90;;;;;;5076156;28;20020;-84
2024/01/22 09:27:31;;;;;;;7.25;2.47;;;11.40;99.90;;;;;;5094508;28;20036;-84
2024/01/22 09:29:58;;;;;;;6.68;1.73;;;11.40;99.90;;;;;;5080176;28;20024;-84
2024/01/22 09:32:25;;;;;;;5.60;2.22;;;11.50;99.90;;;;;;5080027;28;20028;-84
2024/01/22 09:34:51;;;;;;;8.98;2.00;;;11.50;99.90;;;;;;5080276;28;20379;-84
2024/01/22 09:37:17;;;;;;;7.15;2.00;;;11.40;99.90;;;;;;5079991;28;20032;-84
2024/01/22 09:39:44;;;;;;;7.28;1.83;;;11.40;99.90;;;;;;5080627;28;20024;-84
2024/01/22 09:42:12;;;;;;;6.47;2.13;;;11.40;99.90;;;;;;5080267;28;20052;-84
2024/01/22 09:44:40;;;;;;;8.13;2.30;;;11.40;99.90;;;;;;5079159;28;20482;-83
2024/01/22 09:47:07;;;;;;;9.50;2.17;;;11.40;99.90;;;;;;5097386;28;20020;-85
2024/01/22 09:49:36;;;;;;;8.77;2.45;;;11.40;99.90;;;;;;5046059;28;20035;-87
2024/01/22 09:52:03;;;;;;;7.20;2.13;;;11.30;99.90;;;;;;5079320;28;20020;-86
2024/01/22 09:54:30;;;;;;;10.82;2.30;;;11.10;99.90;;;;;;5078954;28;20016;-87
2024/01/22 09:56:57;;;;;;;6.70;1.58;;;11.00;99.90;;;;;;5079523;28;20032;-88
2024/01/22 09:59:25;;;;;;;7.65;1.98;;;10.80;99.90;;;;;;5062918;28;20032;-86
2024/01/22 10:01:53;;;;;;;5.97;1.85;;;10.70;99.90;;;;;;5063069;28;20031;-85
2024/01/22 10:04:19;;;;;;;6.25;1.88;;;10.70;99.90;;;;;;5062617;28;20056;-85
2024/01/22 10:06:46;;;;;;;7.45;1.98;;;10.60;99.90;;;;;;5078998;28;20020;-85
2024/01/22 10:09:17;;;;;;;7.00;1.70;;;10.50;99.90;;;;;;5079121;28;20471;-85
2024/01/22 10:11:43;;;;;;;6.80;1.65;;;10.50;99.90;;;;;;5062974;28;20039;-85
2024/01/22 10:14:09;;;;;;;7.25;1.73;;;10.50;99.90;;;;;;5062440;28;20051;-85
2024/01/22 10:16:38;;;;;;;7.93;1.75;;;10.40;99.90;;;;;;5062062;28;20482;-85
2024/01/22 10:19:09;;;;;;;10.02;1.85;;;10.40;99.90;;;;;;5097152;28;20028;-86
2024/01/22 10:21:35;;;;;;;7.35;1.70;;;10.40;99.90;;;;;;5079034;28;20430;-85
2024/01/22 10:24:04;;;;;;;11.73;2.67;;;10.30;99.90;;;;;;5062006;28;20103;-86
2024/01/22 10:26:31;;;;;;;9.55;2.30;;;10.30;99.90;;;;;;5078608;28;20119;-85
2024/01/22 10:29:18;;;;;;;8.35;2.35;;;10.30;99.90;;;;;;5096751;28;20081;-86
2024/01/22 10:32:00;;;;;;;7.47;2.03;;;10.20;99.90;;;;;;5079199;28;20024;-86
2024/01/22 10:34:30;;;;;;;9.90;2.67;;;10.20;99.90;;;;;;5045991;28;20102;-85
2024/01/22 10:37:16;;;;;;;9.33;2.40;;;10.20;99.90;;;;;;5046984;28;20024;-85
2024/01/22 10:39:44;;;;;;;11.48;2.30;;;10.20;99.90;;;;;;5101817;28;20032;-83
2024/01/22 10:42:11;;;;;;;8.43;2.88;;;10.20;99.90;;;;;;5087130;28;20015;-85
2024/01/22 10:44:38;;;;;;;10.18;2.55;;;10.20;99.90;;;;;;5118583;28;20452;-85
2024/01/22 10:47:05;;;;;;;8.77;2.47;;;10.20;99.90;;;;;;5076187;28;20092;-85
2024/01/22 10:49:31;;;;;;;10.95;2.15;;;10.20;99.90;;;;;;5102860;28;20028;-86
2024/01/22 10:52:02;;;;;;;9.27;2.22;;;10.20;99.90;;;;;;5096621;28;20028;-85
2024/01/22 10:54:32;;;;;;;12.77;2.40;;;10.20;99.90;;;;;;5061354;28;20082;-85
2024/01/22 10:57:08;;;;;;;9.82;2.70;;;10.30;99.90;;;;;;5062079;28;20039;-85
2024/01/22 10:59:39;;;;;;;12.73;3.35;;;10.20;99.90;;;;;;5077907;28;20115;-85
2024/01/22 11:02:06;;;;;;;14.90;3.35;;;10.20;99.90;;;;;;5078743;28;20035;-86
2024/01/22 11:04:45;;;;;;;13.48;3.28;;;10.20;99.90;;;;;;5074234;28;20559;-86
2024/01/22 11:07:11;;;;;;;14.25;3.25;;;10.20;99.90;;;;;;5074726;28;20051;-86
2024/01/22 11:09:39;;;;;;;8.10;2.55;;;10.20;99.90;;;;;;5057660;28;20078;-86
2024/01/22 11:12:11;;;;;;;18.38;4.15;;;10.20;99.90;;;;;;5074970;28;20124;-85
2024/01/22 11:14:38;;;;;;;14.25;2.80;;;10.10;99.90;;;;;;5057762;28;20028;-85
2024/01/22 11:17:09;;;;;;;18.65;4.80;;;10.20;99.90;;;;;;5057758;28;20021;-85
2024/01/22 11:19:35;;;;;;;14.82;3.40;;;10.20;99.90;;;;;;5074406;28;20380;-85
2024/01/22 11:22:09;;;;;;;15.75;3.85;;;10.20;99.90;;;;;;5041160;28;20024;-86
2024/01/22 11:24:34;;;;;;;14.70;3.65;;;10.20;99.90;;;;;;5073989;28;20024;-86
2024/01/22 11:27:05;;;;;;;17.05;4.15;;;10.30;99.90;;;;;;5040875;28;20025;-86
2024/01/22 11:29:32;;;;;;;24.27;4.80;;;10.20;99.90;;;;;;5074361;28;20382;-85
2024/01/22 11:32:26;;;;;;;19.42;4.57;;;10.20;99.90;;;;;;5057445;28;20052;-86
2024/01/22 11:34:56;;;;;;;20.65;5.28;;;10.20;99.90;;;;;;5058058;28;20016;-86
2024/01/22 11:37:40;;;;;;;19.00;4.60;;;10.20;99.90;;;;;;5073925;28;20016;-85
2024/01/22 11:40:07;;;;;;;22.08;4.63;;;10.20;99.90;;;;;;5074162;28;20468;-85
2024/01/22 11:42:34;;;;;;;18.10;3.70;;;10.10;99.90;;;;;;5075008;28;20468;-85
2024/01/22 11:45:11;;;;;;;23.25;4.80;;;10.10;99.90;;;;;;5073513;28;20055;-85
2024/01/22 11:47:38;;;;;;;16.75;4.28;;;10.20;99.90;;;;;;5057250;28;20051;-86
2024/01/22 11:50:06;;;;;;;19.25;4.55;;;10.20;99.90;;;;;;5073387;28;20062;-85
2024/01/22 11:52:36;;;;;;;24.05;4.97;;;10.20;99.90;;;;;;5073084;28;20029;-84
2024/01/22 11:55:05;;;;;;;20.10;5.03;;;10.20;99.90;;;;;;5073519;28;20362;-84
2024/01/22 11:57:35;;;;;;;17.95;4.70;;;10.30;99.90;;;;;;5073715;28;20035;-85
2024/01/22 12:00:04;;;;;;;22.58;5.18;;;10.30;99.90;;;;;;5057687;28;20059;-85
2024/01/22 12:02:29;;;;;;;21.92;4.60;;;10.20;99.90;;;;;;5074095;28;20036;-85
2024/01/22 12:05:10;;;;;;;20.98;5.20;;;10.30;99.90;;;;;;5057272;28;20052;-85
2024/01/22 12:07:54;;;;;;;21.83;4.50;;;10.30;99.90;;;;;;5074339;28;20056;-85
2024/01/22 12:10:24;;;;;;;17.85;4.20;;;10.30;99.90;;;;;;5084253;28;20012;-84
2024/01/22 12:12:59;;;;;;;33.72;7.13;;;10.40;99.90;;;;;;5097915;28;20007;-84
2024/01/22 12:15:27;;;;;;;23.33;5.45;;;10.40;99.90;;;;;;5097799;28;20031;-85
2024/01/22 12:17:54;;;;;;;25.65;5.82;;;10.40;99.90;;;;;;5090987;28;20082;-85
2024/01/22 12:20:21;;;;;;;23.60;5.70;;;10.40;99.90;;;;;;5062393;28;20059;-85
2024/01/22 12:23:03;;;;;;;24.52;5.72;;;10.40;99.90;;;;;;5057712;28;20054;-85
2024/01/22 12:25:37;;;;;;;24.58;5.93;;;10.40;99.90;;;;;;5072832;28;20051;-85
2024/01/22 12:28:13;;;;;;;23.58;5.13;;;10.50;99.90;;;;;;5073112;28;20036;-85
2024/01/22 12:30:39;;;;;;;23.70;5.78;;;10.50;99.90;;;;;;5072995;28;20424;-84
2024/01/22 12:33:06;;;;;;;21.92;6.00;;;10.50;99.90;;;;;;5073408;28;20067;-85
2024/01/22 12:35:31;;;;;;;26.67;6.15;;;10.50;99.90;;;;;;5056381;28;20094;-85
2024/01/22 12:37:57;;;;;;;31.80;7.05;;;10.50;99.90;;;;;;5056432;28;20435;-85
2024/01/22 12:40:24;;;;;;;27.20;6.20;;;10.60;99.90;;;;;;5040277;28;20032;-84
2024/01/22 12:42:51;;;;;;;26.95;6.38;;;10.60;99.90;;;;;;5056222;28;20062;-85
2024/01/22 12:45:21;;;;;;;20.88;6.47;;;10.60;99.90;;;;;;5074145;28;20028;-85
2024/01/22 12:47:47;;;;;;;28.13;5.68;;;10.60;99.90;;;;;;5072712;28;20044;-85
2024/01/22 12:50:17;;;;;;;25.45;5.35;;;10.60;99.90;;;;;;5072696;28;20039;-85